Time;durP1;ratioP1;P1;durP2;ratioP2;P2;SDS_P1;SDS_P2;PMS_P1;PMS_P2;Temp;Humidity;BMP_temperature;BMP_pressure;BME280_temperature;BME280_humidity;BME280_pressure;Samples;Min_cycle;Max_cycle;Signal;HPM_P1;HPM_P2
2022/05/30 00:02:13;;;;;;;3.08;0.52;;;;;;;;;;5004865;28;20073;-72
2022/05/30 00:04:40;;;;;;;3.20;0.80;;;;;;;;;;5014268;28;20084;-72
2022/05/30 00:07:06;;;;;;;3.22;0.70;;;;;;;;;;5005500;28;20088;-71
2022/05/30 00:09:33;;;;;;;3.97;1.08;;;;;;;;;;5010393;28;20776;-72
2022/05/30 00:11:59;;;;;;;3.38;0.70;;;;;;;;;;5005073;28;20033;-72
2022/05/30 00:14:26;;;;;;;3.83;0.60;;;;;;;;;;5001111;28;20364;-72
2022/05/30 00:16:52;;;;;;;4.65;0.70;;;;;;;;;;5002667;28;20353;-71
2022/05/30 00:19:18;;;;;;;3.30;0.50;;;;;;;;;;5007567;28;20034;-72
2022/05/30 00:21:44;;;;;;;2.55;0.60;;;;;;;;;;5006629;28;20495;-71
2022/05/30 00:24:11;;;;;;;3.22;0.70;;;;;;;;;;5006221;28;20116;-72
2022/05/30 00:26:37;;;;;;;4.55;0.60;;;;;;;;;;5004469;28;20038;-71
2022/05/30 00:29:04;;;;;;;2.90;0.80;;;;;;;;;;5010432;28;20030;-71
2022/05/30 00:31:31;;;;;;;6.30;0.70;;;;;;;;;;5000563;28;20480;-71
2022/05/30 00:33:57;;;;;;;4.75;0.70;;;;;;;;;;5014760;28;20037;-72
2022/05/30 00:36:23;;;;;;;5.00;0.70;;;;;;;;;;5013179;28;20034;-72
2022/05/30 00:38:49;;;;;;;5.07;0.73;;;;;;;;;;5006357;28;20081;-72
2022/05/30 00:41:16;;;;;;;4.00;0.80;;;;;;;;;;5006802;28;20034;-72
2022/05/30 00:43:45;;;;;;;4.10;0.80;;;;;;;;;;5007461;28;20389;-72
2022/05/30 00:46:12;;;;;;;2.67;0.60;;;;;;;;;;5008659;28;20685;-72
2022/05/30 00:48:43;;;;;;;3.35;0.80;;;;;;;;;;5005201;28;20058;-72
2022/05/30 00:51:13;;;;;;;2.38;0.60;;;;;;;;;;5012049;28;20320;-72
2022/05/30 00:53:40;;;;;;;3.75;0.70;;;;;;;;;;5004731;28;20040;-72
2022/05/30 00:56:09;;;;;;;2.55;0.65;;;;;;;;;;5007246;28;20466;-71
2022/05/30 00:58:36;;;;;;;4.03;0.60;;;;;;;;;;5005793;28;20107;-72
2022/05/30 01:01:02;;;;;;;4.55;0.70;;;;;;;;;;4998454;28;20108;-72
2022/05/30 01:06:32;;;;;;;4.40;0.80;;;;;;;;;;5004140;28;20068;-72
2022/05/30 01:08:59;;;;;;;2.78;0.60;;;;;;;;;;5004544;28;20038;-71
2022/05/30 01:11:25;;;;;;;3.47;0.77;;;;;;;;;;5003768;28;20021;-71
2022/05/30 01:13:51;;;;;;;4.30;0.90;;;;;;;;;;5006958;28;20395;-71
2022/05/30 01:16:19;;;;;;;3.97;0.70;;;;;;;;;;5002689;28;20030;-72
2022/05/30 01:18:49;;;;;;;3.78;0.55;;;;;;;;;;5006807;28;20065;-71
2022/05/30 01:21:27;;;;;;;2.78;0.60;;;;;;;;;;5003835;28;20033;-72
2022/05/30 01:23:58;;;;;;;2.72;0.50;;;;;;;;;;5005290;28;20044;-71
2022/05/30 01:26:24;;;;;;;2.28;0.55;;;;;;;;;;5002212;28;20040;-71
2022/05/30 01:29:09;;;;;;;5.20;0.80;;;;;;;;;;5002252;28;20708;-72
2022/05/30 01:31:35;;;;;;;4.45;0.70;;;;;;;;;;5007736;28;20086;-71
2022/05/30 01:34:02;;;;;;;5.32;0.65;;;;;;;;;;5009194;28;20053;-71
2022/05/30 01:36:29;;;;;;;3.85;0.80;;;;;;;;;;5010872;28;20030;-72
2022/05/30 01:38:55;;;;;;;5.50;0.85;;;;;;;;;;5015131;28;20057;-72
2022/05/30 01:41:21;;;;;;;2.15;0.60;;;;;;;;;;5013394;28;20088;-72
2022/05/30 01:43:47;;;;;;;2.22;0.60;;;;;;;;;;5009098;28;20722;-72
2022/05/30 01:46:14;;;;;;;5.75;1.15;;;;;;;;;;5008521;28;20057;-71
2022/05/30 01:48:40;;;;;;;4.13;0.60;;;;;;;;;;5012066;28;20100;-71
2022/05/30 01:51:07;;;;;;;5.05;0.60;;;;;;;;;;5011428;28;20562;-71
2022/05/30 01:53:33;;;;;;;3.08;0.57;;;;;;;;;;5007904;28;20045;-71
2022/05/30 01:55:59;;;;;;;2.72;0.60;;;;;;;;;;5010750;28;20826;-72
2022/05/30 01:58:25;;;;;;;3.47;0.68;;;;;;;;;;5006329;28;20121;-72
2022/05/30 02:00:51;;;;;;;3.50;0.60;;;;;;;;;;5010138;28;20048;-72
2022/05/30 02:03:17;;;;;;;2.80;0.50;;;;;;;;;;5009635;28;20045;-72
2022/05/30 02:05:43;;;;;;;6.13;0.73;;;;;;;;;;5015760;28;20038;-71
2022/05/30 02:08:09;;;;;;;4.45;0.80;;;;;;;;;;5013617;28;20042;-72
2022/05/30 02:10:36;;;;;;;4.10;0.88;;;;;;;;;;5017366;28;20033;-72
2022/05/30 02:13:02;;;;;;;2.05;0.60;;;;;;;;;;5005745;28;20053;-72
2022/05/30 02:15:29;;;;;;;7.60;1.20;;;;;;;;;;5008613;28;20034;-72
2022/05/30 02:17:55;;;;;;;4.63;1.08;;;;;;;;;;5006586;28;20034;-72
2022/05/30 02:20:21;;;;;;;3.47;0.47;;;;;;;;;;5003971;28;20044;-72
2022/05/30 02:22:47;;;;;;;3.35;0.55;;;;;;;;;;5008074;28;20057;-72
2022/05/30 02:25:14;;;;;;;5.90;0.75;;;;;;;;;;5009325;28;20519;-72
2022/05/30 02:27:41;;;;;;;5.40;1.00;;;;;;;;;;5005281;28;20049;-72
2022/05/30 02:30:07;;;;;;;3.53;0.60;;;;;;;;;;5011333;28;20388;-72
2022/05/30 02:32:34;;;;;;;3.10;0.60;;;;;;;;;;5012779;28;20423;-72
2022/05/30 02:37:44;;;;;;;4.88;0.70;;;;;;;;;;5005711;28;20053;-72
2022/05/30 02:40:10;;;;;;;3.70;0.52;;;;;;;;;;5002482;28;20030;-72
2022/05/30 02:42:36;;;;;;;8.82;2.28;;;;;;;;;;5018006;28;20041;-72
2022/05/30 02:45:03;;;;;;;3.03;0.50;;;;;;;;;;5011945;28;20138;-73
2022/05/30 02:47:29;;;;;;;3.75;0.57;;;;;;;;;;5011146;28;20058;-72
2022/05/30 02:49:55;;;;;;;4.30;0.80;;;;;;;;;;5012952;28;20037;-72
2022/05/30 02:52:21;;;;;;;2.38;0.60;;;;;;;;;;5012178;28;20052;-72
2022/05/30 02:54:47;;;;;;;5.13;0.80;;;;;;;;;;5010314;28;20053;-72
2022/05/30 02:57:13;;;;;;;3.15;0.60;;;;;;;;;;5013917;28;20375;-72
2022/05/30 02:59:39;;;;;;;2.88;0.75;;;;;;;;;;5012969;28;20113;-72
2022/05/30 03:02:05;;;;;;;3.92;0.68;;;;;;;;;;5011304;28;20083;-72
2022/05/30 03:04:31;;;;;;;3.20;0.82;;;;;;;;;;5014208;28;20048;-72
2022/05/30 03:06:57;;;;;;;3.72;0.95;;;;;;;;;;5006750;28;20029;-72
2022/05/30 03:09:23;;;;;;;3.38;0.77;;;;;;;;;;5010164;28;20073;-72
2022/05/30 03:11:49;;;;;;;3.08;0.70;;;;;;;;;;5013886;28;20045;-72
2022/05/30 03:14:15;;;;;;;4.90;0.68;;;;;;;;;;5007494;28;20042;-72
2022/05/30 03:16:41;;;;;;;2.53;0.68;;;;;;;;;;5010053;28;20034;-72
2022/05/30 03:19:07;;;;;;;2.47;0.70;;;;;;;;;;5005995;28;20033;-72
2022/05/30 03:21:33;;;;;;;3.60;0.75;;;;;;;;;;5006114;28;20096;-72
2022/05/30 03:23:59;;;;;;;5.72;1.10;;;;;;;;;;5004941;28;20066;-72
2022/05/30 03:26:25;;;;;;;4.95;1.50;;;;;;;;;;5008999;28;20061;-72
2022/05/30 03:28:51;;;;;;;6.53;1.48;;;;;;;;;;5014443;28;20069;-72
2022/05/30 03:31:17;;;;;;;4.43;1.17;;;;;;;;;;5010136;28;20120;-72
2022/05/30 03:33:43;;;;;;;4.80;1.27;;;;;;;;;;5012678;28;20459;-72
2022/05/30 03:36:26;;;;;;;5.10;1.30;;;;;;;;;;4999822;28;20026;-72
2022/05/30 03:38:53;;;;;;;4.68;1.40;;;;;;;;;;5006841;28;20033;-73
2022/05/30 03:41:19;;;;;;;4.38;1.27;;;;;;;;;;5002250;28;20038;-72
2022/05/30 03:43:45;;;;;;;5.18;1.48;;;;;;;;;;5004545;28;20042;-72
2022/05/30 03:46:11;;;;;;;5.88;1.10;;;;;;;;;;5013270;28;20424;-72
2022/05/30 03:48:37;;;;;;;4.57;1.00;;;;;;;;;;5004460;28;20056;-72
2022/05/30 03:51:04;;;;;;;6.82;1.50;;;;;;;;;;5013825;28;20658;-72
2022/05/30 03:53:30;;;;;;;6.65;1.08;;;;;;;;;;5009881;28;20042;-71
2022/05/30 03:55:56;;;;;;;5.13;1.35;;;;;;;;;;5013768;28;20030;-71
2022/05/30 03:58:22;;;;;;;6.57;0.98;;;;;;;;;;5014355;28;20057;-71
2022/05/30 04:00:48;;;;;;;5.78;1.00;;;;;;;;;;5009237;28;20025;-71
2022/05/30 04:03:14;;;;;;;5.20;1.20;;;;;;;;;;5008010;28;20038;-72
2022/05/30 04:05:40;;;;;;;3.80;0.82;;;;;;;;;;5011111;28;20029;-72
2022/05/30 04:08:07;;;;;;;4.05;0.90;;;;;;;;;;5007996;28;20042;-71
2022/05/30 04:10:33;;;;;;;5.10;1.00;;;;;;;;;;5006060;28;20042;-71
2022/05/30 04:13:04;;;;;;;6.18;1.02;;;;;;;;;;5010118;28;20044;-72
2022/05/30 04:15:30;;;;;;;3.70;0.85;;;;;;;;;;5011793;28;20041;-71
2022/05/30 04:17:56;;;;;;;4.53;1.17;;;;;;;;;;5005593;28;20498;-72
2022/05/30 04:20:22;;;;;;;9.45;1.30;;;;;;;;;;5002768;28;20185;-71
2022/05/30 04:22:48;;;;;;;6.05;1.10;;;;;;;;;;5006858;28;20038;-72
2022/05/30 04:25:14;;;;;;;6.03;0.93;;;;;;;;;;5010695;28;20518;-71
2022/05/30 04:27:40;;;;;;;5.10;1.20;;;;;;;;;;5014431;28;20077;-71
2022/05/30 04:30:07;;;;;;;3.33;0.80;;;;;;;;;;5012710;28;20053;-72
2022/05/30 04:32:34;;;;;;;6.45;0.80;;;;;;;;;;5008740;28;20045;-71
2022/05/30 04:35:00;;;;;;;4.65;0.80;;;;;;;;;;5008290;28;20512;-71
2022/05/30 04:37:28;;;;;;;5.78;1.10;;;;;;;;;;5009429;28;20042;-71
2022/05/30 04:39:54;;;;;;;6.22;0.95;;;;;;;;;;5006028;28;20101;-71
2022/05/30 04:42:20;;;;;;;6.97;0.85;;;;;;;;;;5010747;28;20038;-71
2022/05/30 04:44:46;;;;;;;5.15;0.77;;;;;;;;;;5008388;28;20166;-71
2022/05/30 04:47:12;;;;;;;6.45;0.93;;;;;;;;;;5006113;28;20045;-72
2022/05/30 04:49:38;;;;;;;7.30;1.00;;;;;;;;;;5000732;28;20040;-71
2022/05/30 04:52:05;;;;;;;7.60;1.30;;;;;;;;;;5008418;28;20577;-72
2022/05/30 04:54:31;;;;;;;6.68;1.30;;;;;;;;;;5004090;28;20065;-72
2022/05/30 04:56:58;;;;;;;6.53;1.00;;;;;;;;;;5007484;28;20029;-71
2022/05/30 04:59:25;;;;;;;7.40;1.23;;;;;;;;;;5012049;28;20038;-72
2022/05/30 05:01:51;;;;;;;6.68;0.93;;;;;;;;;;5005661;28;20033;-71
2022/05/30 05:04:17;;;;;;;6.40;0.82;;;;;;;;;;5006855;28;20052;-72
2022/05/30 05:06:46;;;;;;;7.10;1.00;;;;;;;;;;5008621;28;20029;-71
2022/05/30 05:09:17;;;;;;;3.17;1.00;;;;;;;;;;5011384;28;20072;-71
2022/05/30 05:11:44;;;;;;;6.53;1.75;;;;;;;;;;5009807;28;20030;-72
2022/05/30 05:14:10;;;;;;;3.63;0.70;;;;;;;;;;5014320;28;20067;-71
2022/05/30 05:16:37;;;;;;;5.25;1.25;;;;;;;;;;5013298;28;20060;-72
2022/05/30 05:19:03;;;;;;;4.15;1.10;;;;;;;;;;5010030;28;20084;-71
2022/05/30 05:21:36;;;;;;;4.25;1.00;;;;;;;;;;5006304;28;20029;-72
2022/05/30 05:24:03;;;;;;;5.35;0.90;;;;;;;;;;5012501;28;20099;-71
2022/05/30 05:26:29;;;;;;;5.28;1.27;;;;;;;;;;5007440;28;20030;-72
2022/05/30 05:28:55;;;;;;;3.92;1.20;;;;;;;;;;5012981;28;20088;-72
2022/05/30 05:31:21;;;;;;;8.45;2.15;;;;;;;;;;5010193;28;20360;-71
2022/05/30 05:33:47;;;;;;;9.02;2.50;;;;;;;;;;5012199;28;20045;-71
2022/05/30 05:36:18;;;;;;;11.48;2.22;;;;;;;;;;5012265;28;20029;-71
2022/05/30 05:38:44;;;;;;;6.53;1.38;;;;;;;;;;5014569;28;20048;-72
2022/05/30 05:41:10;;;;;;;5.45;1.27;;;;;;;;;;5008359;28;20018;-72
2022/05/30 05:43:36;;;;;;;7.25;1.65;;;;;;;;;;5001030;28;20475;-72
2022/05/30 05:46:02;;;;;;;6.05;1.33;;;;;;;;;;5007374;28;20058;-72
2022/05/30 05:48:29;;;;;;;12.38;1.40;;;;;;;;;;5006270;28;20100;-71
2022/05/30 05:50:55;;;;;;;4.30;1.10;;;;;;;;;;5011055;28;20041;-71
2022/05/30 05:53:21;;;;;;;7.78;1.20;;;;;;;;;;5009497;28;20460;-72
2022/05/30 05:55:47;;;;;;;8.30;1.63;;;;;;;;;;5011031;28;20068;-72
2022/05/30 05:58:13;;;;;;;7.10;1.20;;;;;;;;;;5011660;28;20034;-71
2022/05/30 06:00:39;;;;;;;5.68;1.73;;;;;;;;;;5000989;28;20026;-71
2022/05/30 06:03:05;;;;;;;10.40;1.73;;;;;;;;;;5005704;28;20072;-72
2022/05/30 06:05:31;;;;;;;9.25;1.40;;;;;;;;;;5007649;28;20499;-72
2022/05/30 06:08:00;;;;;;;6.93;1.40;;;;;;;;;;5045566;23;20168;-72
2022/05/30 06:10:26;;;;;;;5.80;1.20;;;;;;;;;;5034589;28;20080;-72
2022/05/30 06:12:52;;;;;;;5.20;1.27;;;;;;;;;;5037108;28;20033;-73
2022/05/30 06:15:19;;;;;;;6.97;1.33;;;;;;;;;;5037257;28;20052;-72
2022/05/30 06:17:46;;;;;;;7.40;1.42;;;;;;;;;;5036006;28;20660;-72
2022/05/30 06:20:14;;;;;;;6.80;1.67;;;;;;;;;;5032908;28;20029;-72
2022/05/30 06:22:40;;;;;;;5.68;1.00;;;;;;;;;;5037009;28;20025;-72
2022/05/30 06:25:06;;;;;;;8.68;1.70;;;;;;;;;;5038191;28;20033;-72
2022/05/30 06:27:32;;;;;;;5.93;1.58;;;;;;;;;;5036419;28;20068;-72
2022/05/30 06:29:59;;;;;;;11.80;1.75;;;;;;;;;;5039359;28;20116;-72
2022/05/30 06:32:25;;;;;;;8.68;1.67;;;;;;;;;;5039755;28;20032;-72
2022/05/30 06:34:51;;;;;;;13.15;1.85;;;;;;;;;;5035206;28;20037;-72
2022/05/30 06:37:17;;;;;;;9.07;1.58;;;;;;;;;;5033869;28;20076;-72
2022/05/30 06:39:43;;;;;;;11.57;1.45;;;;;;;;;;5032634;28;20029;-73
2022/05/30 06:42:10;;;;;;;5.30;1.58;;;;;;;;;;5033770;28;20025;-72
2022/05/30 06:44:37;;;;;;;7.97;2.08;;;;;;;;;;5032475;28;20040;-72
2022/05/30 06:47:03;;;;;;;9.80;1.40;;;;;;;;;;5037616;28;21711;-71
2022/05/30 06:49:29;;;;;;;7.20;1.50;;;;;;;;;;5034759;28;20041;-72
2022/05/30 06:51:55;;;;;;;10.45;1.48;;;;;;;;;;5036684;28;20398;-72
2022/05/30 06:54:21;;;;;;;4.75;1.27;;;;;;;;;;5037380;28;20037;-72
2022/05/30 06:59:32;;;;;;;5.10;1.30;;;;;;;;;;5036198;28;20044;-71
2022/05/30 07:02:00;;;;;;;4.13;1.05;;;;;;;;;;5039083;28;20415;-71
2022/05/30 07:04:26;;;;;;;6.13;1.60;;;;;;;;;;5037374;28;20029;-72
2022/05/30 07:06:52;;;;;;;5.50;1.45;;;;;;;;;;5040390;28;20056;-72
2022/05/30 07:09:18;;;;;;;6.22;2.20;;;;;;;;;;5036641;28;20036;-71
2022/05/30 07:11:44;;;;;;;8.32;1.50;;;;;;;;;;5037532;28;20032;-71
2022/05/30 07:14:12;;;;;;;7.43;1.85;;;;;;;;;;5038527;28;20033;-72
2022/05/30 07:16:39;;;;;;;11.57;1.98;;;;;;;;;;5035967;28;20033;-71
2022/05/30 07:19:05;;;;;;;7.78;2.17;;;;;;;;;;5038410;28;20017;-72
2022/05/30 07:21:32;;;;;;;6.43;1.60;;;;;;;;;;5036249;28;20034;-71
2022/05/30 07:23:58;;;;;;;9.68;2.05;;;;;;;;;;5035341;28;20036;-73
2022/05/30 07:26:24;;;;;;;6.70;1.50;;;;;;;;;;5038134;28;20041;-71
2022/05/30 07:28:53;;;;;;;10.68;2.75;;;;;;;;;;5037723;28;20458;-72
2022/05/30 07:31:21;;;;;;;8.15;1.58;;;;;;;;;;5038030;28;20119;-72
2022/05/30 07:33:48;;;;;;;8.27;1.70;;;;;;;;;;5037278;28;20060;-71
2022/05/30 07:36:25;;;;;;;5.90;1.60;;;;;;;;;;5037306;28;20044;-72
2022/05/30 07:38:51;;;;;;;7.15;1.83;;;;;;;;;;5036809;28;20022;-71
2022/05/30 07:41:18;;;;;;;6.78;1.70;;;;;;;;;;5037386;28;20064;-72
2022/05/30 07:43:45;;;;;;;6.70;1.48;;;;;;;;;;5038377;28;20072;-72
2022/05/30 07:46:12;;;;;;;7.15;1.70;;;;;;;;;;5034983;28;20064;-72
2022/05/30 07:48:38;;;;;;;8.25;1.70;;;;;;;;;;5034839;28;20047;-72
2022/05/30 07:51:05;;;;;;;6.80;1.40;;;;;;;;;;5038052;28;20036;-71
2022/05/30 07:53:31;;;;;;;8.32;1.35;;;;;;;;;;5038912;28;20542;-72
2022/05/30 07:55:58;;;;;;;6.97;1.77;;;;;;;;;;5034848;28;20037;-72
2022/05/30 07:58:24;;;;;;;8.55;1.52;;;;;;;;;;5034494;28;20056;-72
2022/05/30 08:00:54;;;;;;;6.93;1.33;;;;;;;;;;5035859;28;20364;-72
2022/05/30 08:03:21;;;;;;;10.60;1.67;;;;;;;;;;5033930;28;20021;-71
2022/05/30 08:05:47;;;;;;;4.55;1.05;;;;;;;;;;5034586;28;20099;-72
2022/05/30 08:08:14;;;;;;;11.57;1.58;;;;;;;;;;5031356;28;20033;-72
2022/05/30 08:10:41;;;;;;;6.53;1.50;;;;;;;;;;5032567;28;20091;-71
2022/05/30 08:13:07;;;;;;;6.25;1.77;;;;;;;;;;5041379;28;20064;-72
2022/05/30 08:15:33;;;;;;;7.70;1.50;;;;;;;;;;5037683;28;20045;-72
2022/05/30 08:18:00;;;;;;;4.93;1.05;;;;;;;;;;5036664;28;20052;-72
2022/05/30 08:20:27;;;;;;;8.35;1.70;;;;;;;;;;5037625;28;20040;-71
2022/05/30 08:22:53;;;;;;;8.70;1.50;;;;;;;;;;5031638;28;20120;-72
2022/05/30 08:25:20;;;;;;;6.72;1.20;;;;;;;;;;5033369;28;20077;-72
2022/05/30 08:27:47;;;;;;;6.28;1.58;;;;;;;;;;5037929;28;20387;-71
2022/05/30 08:30:15;;;;;;;6.85;1.42;;;;;;;;;;5034276;28;20028;-71
2022/05/30 08:32:43;;;;;;;4.63;1.17;;;;;;;;;;5035536;28;20043;-71
2022/05/30 08:35:10;;;;;;;4.32;1.17;;;;;;;;;;5035838;28;20049;-71
2022/05/30 08:37:37;;;;;;;7.53;2.05;;;;;;;;;;5035984;28;20075;-71
2022/05/30 08:42:57;;;;;;;6.97;1.58;;;;;;;;;;5034465;28;20500;-71
2022/05/30 08:45:25;;;;;;;7.22;1.67;;;;;;;;;;5039996;28;20041;-71
2022/05/30 08:47:54;;;;;;;5.53;1.35;;;;;;;;;;5042022;28;20029;-71
2022/05/30 08:50:35;;;;;;;3.90;1.15;;;;;;;;;;5041183;28;20041;-71
2022/05/30 08:53:20;;;;;;;7.82;1.73;;;;;;;;;;5038417;28;20040;-71
2022/05/30 08:55:46;;;;;;;6.00;1.30;;;;;;;;;;5041687;28;20696;-71
2022/05/30 08:58:24;;;;;;;5.45;1.25;;;;;;;;;;5042501;28;20086;-71
2022/05/30 09:00:52;;;;;;;5.75;1.40;;;;;;;;;;5043799;28;20573;-71
2022/05/30 09:03:21;;;;;;;7.50;1.48;;;;;;;;;;5042538;28;20109;-71
2022/05/30 09:06:06;;;;;;;3.45;1.05;;;;;;;;;;5040580;28;20044;-71
2022/05/30 09:08:34;;;;;;;7.25;1.20;;;;;;;;;;5037014;28;20079;-71
2022/05/30 09:11:02;;;;;;;4.80;1.15;;;;;;;;;;5043664;28;20123;-72
2022/05/30 09:13:40;;;;;;;8.57;1.27;;;;;;;;;;5040817;28;20865;-72
2022/05/30 09:16:25;;;;;;;5.88;1.17;;;;;;;;;;5045179;28;20044;-72
2022/05/30 09:18:53;;;;;;;5.97;1.35;;;;;;;;;;5040711;28;20063;-72
2022/05/30 09:21:21;;;;;;;9.27;1.20;;;;;;;;;;5041313;28;20033;-71
2022/05/30 09:23:47;;;;;;;5.03;0.85;;;;;;;;;;5039444;28;20053;-72
2022/05/30 09:26:16;;;;;;;4.30;1.00;;;;;;;;;;5037963;28;20414;-72
2022/05/30 09:28:43;;;;;;;5.47;1.10;;;;;;;;;;5040708;28;20025;-72
2022/05/30 09:31:21;;;;;;;6.00;1.00;;;;;;;;;;5041247;28;20099;-72
2022/05/30 09:33:55;;;;;;;3.60;0.85;;;;;;;;;;5040656;28;20079;-72
2022/05/30 09:42:30;;;;;;;5.00;1.00;;;;;;;;;;5038852;28;20036;-72
2022/05/30 09:44:58;;;;;;;4.53;1.08;;;;;;;;;;5044319;28;20033;-72
2022/05/30 09:47:24;;;;;;;7.03;1.25;;;;;;;;;;5038886;28;20399;-72
2022/05/30 09:49:51;;;;;;;3.85;0.90;;;;;;;;;;5040242;28;20025;-72
2022/05/30 09:52:26;;;;;;;3.38;0.80;;;;;;;;;;5043401;28;20066;-72
2022/05/30 09:54:54;;;;;;;5.43;0.90;;;;;;;;;;5038203;28;20029;-72
2022/05/30 09:57:26;;;;;;;3.38;0.88;;;;;;;;;;5039988;28;20075;-72
2022/05/30 09:59:53;;;;;;;6.72;1.15;;;;;;;;;;5041130;28;20035;-72
2022/05/30 10:02:30;;;;;;;6.72;1.17;;;;;;;;;;5041175;28;20064;-72
2022/05/30 10:04:56;;;;;;;4.07;0.98;;;;;;;;;;5036498;28;20487;-73
2022/05/30 10:07:22;;;;;;;4.72;0.90;;;;;;;;;;5041173;28;20088;-72
2022/05/30 10:09:53;;;;;;;7.68;1.30;;;;;;;;;;5033961;28;20049;-72
2022/05/30 10:12:29;;;;;;;4.17;0.93;;;;;;;;;;5039122;28;20045;-73
2022/05/30 10:14:55;;;;;;;5.78;1.25;;;;;;;;;;5032563;28;20326;-72
2022/05/30 10:17:26;;;;;;;3.85;0.90;;;;;;;;;;5036393;28;20033;-72
2022/05/30 10:19:52;;;;;;;7.13;1.00;;;;;;;;;;5035884;28;20090;-72
2022/05/30 10:28:20;;;;;;;3.38;0.70;;;;;;;;;;5038516;28;20056;-71
2022/05/30 10:31:07;;;;;;;5.18;1.33;;;;;;;;;;5035773;28;20388;-71
2022/05/30 10:33:52;;;;;;;4.65;1.02;;;;;;;;;;5034759;28;20025;-72
2022/05/30 10:36:21;;;;;;;4.45;0.70;;;;;;;;;;5038221;28;20140;-72
2022/05/30 10:38:47;;;;;;;4.28;0.93;;;;;;;;;;5033484;28;20151;-72
2022/05/30 10:41:16;;;;;;;5.75;1.08;;;;;;;;;;5038060;28;20116;-72
2022/05/30 10:43:45;;;;;;;4.20;1.00;;;;;;;;;;5041574;28;20029;-72
2022/05/30 10:46:19;;;;;;;6.05;1.20;;;;;;;;;;5033850;28;20044;-72
2022/05/30 10:48:50;;;;;;;5.63;1.15;;;;;;;;;;5035636;28;20067;-72
2022/05/30 10:51:24;;;;;;;12.75;1.20;;;;;;;;;;5026820;28;20064;-72
2022/05/30 10:53:50;;;;;;;4.80;1.15;;;;;;;;;;5020328;28;20115;-72
2022/05/30 10:56:28;;;;;;;11.07;1.42;;;;;;;;;;5031996;28;20678;-71
2022/05/30 10:59:13;;;;;;;6.93;1.20;;;;;;;;;;5016232;28;20043;-71
2022/05/30 11:01:40;;;;;;;7.45;0.90;;;;;;;;;;5021085;28;20033;-72
2022/05/30 11:04:06;;;;;;;4.40;1.05;;;;;;;;;;5015579;28;20049;-73
2022/05/30 11:06:34;;;;;;;3.83;1.10;;;;;;;;;;5015327;28;20143;-72
2022/05/30 11:09:20;;;;;;;7.32;0.90;;;;;;;;;;5015247;28;20450;-72
2022/05/30 11:11:55;;;;;;;2.88;0.80;;;;;;;;;;5015567;28;20048;-73
2022/05/30 11:14:21;;;;;;;4.20;0.90;;;;;;;;;;5016764;28;20038;-73
2022/05/30 11:17:02;;;;;;;6.82;1.42;;;;;;;;;;5022066;28;20033;-73
2022/05/30 11:19:47;;;;;;;7.20;1.02;;;;;;;;;;5018643;28;20026;-71
2022/05/30 11:22:24;;;;;;;5.10;1.00;;;;;;;;;;5019870;28;20132;-71
2022/05/30 11:24:53;;;;;;;8.00;1.27;;;;;;;;;;5017534;28;20049;-73
2022/05/30 11:27:37;;;;;;;4.88;1.35;;;;;;;;;;5014424;28;20045;-71
2022/05/30 11:30:28;;;;;;;4.30;0.90;;;;;;;;;;5035916;28;20498;-72
2022/05/30 11:33:13;;;;;;;4.55;1.33;;;;;;;;;;5034296;28;20044;-72
2022/05/30 11:35:49;;;;;;;4.43;0.93;;;;;;;;;;5051259;28;20049;-72
2022/05/30 11:38:21;;;;;;;3.53;0.85;;;;;;;;;;5039352;28;20032;-72
2022/05/30 11:41:06;;;;;;;5.97;0.95;;;;;;;;;;5045541;28;20475;-72
2022/05/30 11:43:32;;;;;;;4.38;1.17;;;;;;;;;;5044037;28;20658;-72
2022/05/30 11:46:19;;;;;;;7.30;1.10;;;;;;;;;;5043844;28;20021;-72
2022/05/30 11:48:56;;;;;;;8.50;1.13;;;;;;;;;;5035047;28;20037;-72
2022/05/30 11:51:22;;;;;;;5.70;1.23;;;;;;;;;;5034837;28;20777;-73
2022/05/30 11:54:07;;;;;;;7.72;1.00;;;;;;;;;;5033274;28;20037;-72
2022/05/30 11:56:56;;;;;;;4.45;1.00;;;;;;;;;;5040270;28;20076;-72
2022/05/30 11:59:47;;;;;;;5.45;1.23;;;;;;;;;;5016540;28;20733;-72
2022/05/30 12:02:17;;;;;;;4.43;0.85;;;;;;;;;;5036186;28;20022;-72
2022/05/30 12:05:05;;;;;;;9.35;1.15;;;;;;;;;;5038312;28;20033;-73
2022/05/30 12:07:34;;;;;;;6.80;1.13;;;;;;;;;;5036732;28;20047;-72
2022/05/30 12:10:00;;;;;;;6.85;1.23;;;;;;;;;;5035054;28;20077;-72
2022/05/30 12:12:36;;;;;;;8.32;1.77;;;;;;;;;;5038688;28;20059;-72
2022/05/30 12:15:20;;;;;;;3.90;0.88;;;;;;;;;;5030182;28;20049;-72
2022/05/30 12:23:50;;;;;;;8.05;1.55;;;;;;;;;;5041001;28;20040;-73
2022/05/30 12:26:16;;;;;;;6.53;1.05;;;;;;;;;;5031620;28;20477;-73
2022/05/30 12:28:42;;;;;;;7.30;0.90;;;;;;;;;;5035736;28;20050;-73
2022/05/30 12:31:09;;;;;;;4.68;1.35;;;;;;;;;;5034761;28;20387;-73
2022/05/30 12:33:36;;;;;;;10.55;1.50;;;;;;;;;;5037655;28;20030;-73
2022/05/30 12:36:10;;;;;;;4.55;0.80;;;;;;;;;;5032852;28;20064;-73
2022/05/30 12:38:55;;;;;;;5.03;0.75;;;;;;;;;;5031864;28;20040;-73
2022/05/30 12:41:21;;;;;;;5.32;0.90;;;;;;;;;;5023973;28;20075;-73
2022/05/30 12:43:49;;;;;;;4.90;0.70;;;;;;;;;;5019006;28;20053;-72
2022/05/30 12:46:17;;;;;;;4.97;0.70;;;;;;;;;;5024147;28;20061;-73
2022/05/30 12:48:58;;;;;;;3.13;0.65;;;;;;;;;;5022251;28;20029;-73
2022/05/30 12:51:26;;;;;;;7.50;0.97;;;;;;;;;;5024000;28;20026;-72
2022/05/30 12:53:58;;;;;;;6.32;0.73;;;;;;;;;;5018512;28;20108;-73
2022/05/30 12:56:24;;;;;;;;;;;;;;;;;;5020853;28;20032;-73
2022/05/30 12:58:50;;;;;;;10.50;0.90;;;;;;;;;;5016928;28;19917;-73
2022/05/30 13:01:24;;;;;;;3.55;0.70;;;;;;;;;;5018719;28;20029;-73
2022/05/30 13:04:08;;;;;;;5.28;0.90;;;;;;;;;;5022422;28;20057;-73
2022/05/30 13:07:04;;;;;;;4.15;0.70;;;;;;;;;;5021565;28;20044;-73
2022/05/30 13:09:36;;;;;;;3.65;0.90;;;;;;;;;;5014125;28;20041;-73
2022/05/30 13:12:11;;;;;;;4.15;0.88;;;;;;;;;;5023842;28;20036;-73
2022/05/30 13:14:40;;;;;;;8.43;1.45;;;;;;;;;;5019509;28;20462;-73
2022/05/30 13:17:18;;;;;;;5.68;1.00;;;;;;;;;;5025935;28;20070;-73
2022/05/30 13:19:46;;;;;;;3.22;0.60;;;;;;;;;;5022255;28;20100;-72
2022/05/30 13:22:13;;;;;;;7.10;0.85;;;;;;;;;;5038919;28;20514;-72
2022/05/30 13:24:39;;;;;;;4.00;0.98;;;;;;;;;;5019314;28;20040;-73
2022/05/30 13:27:06;;;;;;;6.95;1.00;;;;;;;;;;5024079;28;20518;-73
2022/05/30 13:29:36;;;;;;;5.20;1.05;;;;;;;;;;5024656;28;20598;-73
2022/05/30 13:32:13;;;;;;;6.65;0.95;;;;;;;;;;5023594;28;20053;-73
2022/05/30 13:34:44;;;;;;;3.78;0.80;;;;;;;;;;5029916;28;20033;-73
2022/05/30 13:37:10;;;;;;;4.50;0.80;;;;;;;;;;5039042;28;20034;-72
2022/05/30 13:39:36;;;;;;;9.18;0.93;;;;;;;;;;5025417;28;20048;-72
2022/05/30 13:42:02;;;;;;;5.35;0.90;;;;;;;;;;5027852;28;20120;-74
2022/05/30 13:44:29;;;;;;;5.65;0.90;;;;;;;;;;5022492;28;20071;-73
2022/05/30 13:47:01;;;;;;;7.13;0.82;;;;;;;;;;5019432;28;20037;-73
2022/05/30 13:49:31;;;;;;;4.28;0.68;;;;;;;;;;5020169;28;20044;-73
2022/05/30 13:51:58;;;;;;;2.58;0.68;;;;;;;;;;5019276;28;20026;-73
2022/05/30 13:54:25;;;;;;;5.82;0.73;;;;;;;;;;5021517;28;20025;-72
2022/05/30 13:56:52;;;;;;;3.70;0.80;;;;;;;;;;5019936;28;20025;-74
2022/05/30 13:59:23;;;;;;;4.68;0.75;;;;;;;;;;5014604;28;20042;-73
2022/05/30 14:01:55;;;;;;;7.20;0.90;;;;;;;;;;5022442;28;20665;-73
2022/05/30 14:04:26;;;;;;;4.10;0.68;;;;;;;;;;5020396;28;20064;-73
2022/05/30 14:06:52;;;;;;;3.65;0.73;;;;;;;;;;5020105;28;20041;-73
2022/05/30 14:09:19;;;;;;;3.97;0.77;;;;;;;;;;5025507;28;20040;-73
2022/05/30 14:11:47;;;;;;;3.83;0.70;;;;;;;;;;5044378;28;20750;-72
2022/05/30 14:14:32;;;;;;;3.75;0.77;;;;;;;;;;5021801;28;20104;-73
2022/05/30 14:16:58;;;;;;;4.55;0.90;;;;;;;;;;5018549;28;20034;-73
2022/05/30 14:19:24;;;;;;;7.78;0.90;;;;;;;;;;5017694;28;20044;-73
2022/05/30 14:21:54;;;;;;;5.47;1.10;;;;;;;;;;5015430;28;20523;-73
2022/05/30 14:24:26;;;;;;;3.55;0.60;;;;;;;;;;5015177;28;20030;-73
2022/05/30 14:26:53;;;;;;;3.42;0.70;;;;;;;;;;5017375;28;20546;-73
2022/05/30 14:29:22;;;;;;;3.08;0.63;;;;;;;;;;5016309;28;20133;-72
2022/05/30 14:32:00;;;;;;;4.57;0.77;;;;;;;;;;5018506;28;20056;-72
2022/05/30 14:34:33;;;;;;;4.75;1.00;;;;;;;;;;5019766;28;20538;-72
2022/05/30 14:36:59;;;;;;;3.10;0.60;;;;;;;;;;5021752;28;20031;-73
2022/05/30 14:39:26;;;;;;;6.00;0.70;;;;;;;;;;5017122;28;20462;-73
2022/05/30 14:41:54;;;;;;;4.20;0.63;;;;;;;;;;5021825;28;20046;-73
2022/05/30 14:44:21;;;;;;;5.10;1.00;;;;;;;;;;5015733;28;20041;-72
2022/05/30 14:46:50;;;;;;;4.82;0.70;;;;;;;;;;5020012;28;20796;-73
2022/05/30 14:49:18;;;;;;;5.18;0.52;;;;;;;;;;5019372;28;20555;-72
2022/05/30 14:51:50;;;;;;;5.57;0.75;;;;;;;;;;5023773;28;20060;-73
2022/05/30 14:54:16;;;;;;;;;;;;;;;;;;5025059;28;20031;-73
2022/05/30 14:56:43;;;;;;;3.08;0.77;;;;;;;;;;5022536;28;19913;-74
2022/05/30 14:59:12;;;;;;;4.55;0.82;;;;;;;;;;5027048;28;20482;-72
2022/05/30 15:01:40;;;;;;;4.20;0.70;;;;;;;;;;5024703;28;20026;-73
2022/05/30 15:04:09;;;;;;;3.55;0.43;;;;;;;;;;5024571;28;20042;-73
2022/05/30 15:06:46;;;;;;;6.78;0.80;;;;;;;;;;5022736;28;20025;-73
2022/05/30 15:09:14;;;;;;;2.15;0.45;;;;;;;;;;5020571;28;20502;-72
2022/05/30 15:11:41;;;;;;;11.50;0.80;;;;;;;;;;5042340;28;20063;-72
2022/05/30 15:14:11;;;;;;;6.53;0.68;;;;;;;;;;5034362;28;20495;-73
2022/05/30 15:16:37;;;;;;;6.30;1.30;;;;;;;;;;5017634;28;20033;-73
2022/05/30 15:19:03;;;;;;;5.60;0.65;;;;;;;;;;5025930;28;20045;-73
2022/05/30 15:21:31;;;;;;;5.28;0.60;;;;;;;;;;5017357;28;20506;-73
2022/05/30 15:23:58;;;;;;;2.20;0.50;;;;;;;;;;5018305;28;20102;-73